sensor_id;sensor_type;location;lat;lon;timestamp;pressure;altitude;pressure_sealevel;temperature;humidity
35778;BME280;21899;42.662;23.316;2023-02-14T00:01:46;95790.13;;;1.98;79.07
35778;BME280;21899;42.662;23.316;2023-02-14T00:04:12;95796.34;;;2.02;79.08
35778;BME280;21899;42.662;23.316;2023-02-14T00:06:37;95799.47;;;2.04;79.30
35778;BME280;21899;42.662;23.316;2023-02-14T00:09:13;95792.47;;;1.99;79.52
35778;BME280;21899;42.662;23.316;2023-02-14T00:11:39;95798.22;;;2.01;79.04
35778;BME280;21899;42.662;23.316;2023-02-14T00:14:05;95793.13;;;2.05;79.12
35778;BME280;21899;42.662;23.316;2023-02-14T00:16:49;95802.91;;;2.04;79.18
35778;BME280;21899;42.662;23.316;2023-02-14T00:19:16;95791.56;;;1.90;79.61
35778;BME280;21899;42.662;23.316;2023-02-14T00:21:41;95800.38;;;1.99;79.91
35778;BME280;21899;42.662;23.316;2023-02-14T00:24:13;95799.78;;;2.02;79.51
35778;BME280;21899;42.662;23.316;2023-02-14T00:26:39;95803.50;;;2.15;78.91
35778;BME280;21899;42.662;23.316;2023-02-14T00:29:05;95798.38;;;2.18;79.05
35778;BME280;21899;42.662;23.316;2023-02-14T00:31:31;95794.06;;;2.22;78.99
35778;BME280;21899;42.662;23.316;2023-02-14T00:33:56;95793.06;;;2.32;78.87
35778;BME280;21899;42.662;23.316;2023-02-14T00:36:22;95797.63;;;2.40;78.79
35778;BME280;21899;42.662;23.316;2023-02-14T00:38:47;95792.72;;;2.47;78.27
35778;BME280;21899;42.662;23.316;2023-02-14T00:41:13;95781.47;;;2.41;78.36
35778;BME280;21899;42.662;23.316;2023-02-14T00:43:47;95784.00;;;2.46;78.45
35778;BME280;21899;42.662;23.316;2023-02-14T00:46:13;95792.72;;;2.47;78.09
35778;BME280;21899;42.662;23.316;2023-02-14T00:48:39;95790.88;;;2.47;78.12
35778;BME280;21899;42.662;23.316;2023-02-14T00:51:04;95785.91;;;2.46;78.25
35778;BME280;21899;42.662;23.316;2023-02-14T00:53:30;95785.00;;;2.50;78.79
35778;BME280;21899;42.662;23.316;2023-02-14T00:55:55;95768.00;;;2.43;78.03
35778;BME280;21899;42.662;23.316;2023-02-14T00:58:21;95781.69;;;2.45;78.36
35778;BME280;21899;42.662;23.316;2023-02-14T01:00:46;95772.63;;;2.37;78.38
35778;BME280;21899;42.662;23.316;2023-02-14T01:03:12;95767.69;;;2.44;78.41
35778;BME280;21899;42.662;23.316;2023-02-14T01:05:37;95769.97;;;2.37;78.52
35778;BME280;21899;42.662;23.316;2023-02-14T01:08:03;95761.56;;;2.35;78.49
35778;BME280;21899;42.662;23.316;2023-02-14T01:10:29;95765.28;;;2.34;78.18
35778;BME280;21899;42.662;23.316;2023-02-14T01:12:54;95767.94;;;2.34;78.96
35778;BME280;21899;42.662;23.316;2023-02-14T01:15:19;95762.66;;;2.34;78.53
35778;BME280;21899;42.662;23.316;2023-02-14T01:17:45;95760.56;;;2.31;78.76
35778;BME280;21899;42.662;23.316;2023-02-14T01:20:10;95748.28;;;2.27;78.75
35778;BME280;21899;42.662;23.316;2023-02-14T01:22:36;95765.59;;;2.33;78.28
35778;BME280;21899;42.662;23.316;2023-02-14T01:25:03;95763.72;;;2.33;78.05
35778;BME280;21899;42.662;23.316;2023-02-14T01:27:28;95755.28;;;2.31;78.45
35778;BME280;21899;42.662;23.316;2023-02-14T01:29:54;95735.84;;;2.27;78.29
35778;BME280;21899;42.662;23.316;2023-02-14T01:32:19;95745.50;;;2.32;78.31
35778;BME280;21899;42.662;23.316;2023-02-14T01:34:44;95743.16;;;2.30;78.58
35778;BME280;21899;42.662;23.316;2023-02-14T01:37:10;95738.97;;;2.29;78.07
35778;BME280;21899;42.662;23.316;2023-02-14T01:39:35;95741.63;;;2.29;78.42
35778;BME280;21899;42.662;23.316;2023-02-14T01:42:00;95729.97;;;2.30;78.50
35778;BME280;21899;42.662;23.316;2023-02-14T01:47:01;95729.66;;;2.32;78.23
35778;BME280;21899;42.662;23.316;2023-02-14T01:49:29;95720.50;;;2.29;78.34
35778;BME280;21899;42.662;23.316;2023-02-14T01:52:10;95710.03;;;2.24;77.87
35778;BME280;21899;42.662;23.316;2023-02-14T01:54:44;95699.09;;;2.17;78.51
35778;BME280;21899;42.662;23.316;2023-02-14T01:57:15;95712.56;;;2.29;78.07
35778;BME280;21899;42.662;23.316;2023-02-14T01:59:46;95719.09;;;2.32;77.89
35778;BME280;21899;42.662;23.316;2023-02-14T02:02:12;95721.13;;;2.35;78.10
35778;BME280;21899;42.662;23.316;2023-02-14T02:04:42;95717.72;;;2.34;77.81
35778;BME280;21899;42.662;23.316;2023-02-14T02:07:13;95711.28;;;2.27;77.77
35778;BME280;21899;42.662;23.316;2023-02-14T02:09:46;95720.00;;;2.27;78.08
35778;BME280;21899;42.662;23.316;2023-02-14T02:12:13;95718.72;;;2.25;77.88
35778;BME280;21899;42.662;23.316;2023-02-14T02:14:38;95716.56;;;2.27;78.29
35778;BME280;21899;42.662;23.316;2023-02-14T02:17:36;95714.84;;;2.22;78.23
35778;BME280;21899;42.662;23.316;2023-02-14T02:39:15;95687.44;;;2.18;78.15
35778;BME280;21899;42.662;23.316;2023-02-14T02:44:48;95675.16;;;2.14;78.72
35778;BME280;21899;42.662;23.316;2023-02-14T02:49:55;95680.06;;;2.07;78.97
35778;BME280;21899;42.662;23.316;2023-02-14T02:52:53;95676.75;;;2.01;78.75
35778;BME280;21899;42.662;23.316;2023-02-14T02:58:46;95689.28;;;1.96;79.19
35778;BME280;21899;42.662;23.316;2023-02-14T03:01:16;95671.72;;;1.91;79.52
35778;BME280;21899;42.662;23.316;2023-02-14T03:03:45;95674.16;;;1.88;79.39
35778;BME280;21899;42.662;23.316;2023-02-14T03:06:32;95678.53;;;1.92;79.67
35778;BME280;21899;42.662;23.316;2023-02-14T03:09:11;95680.13;;;1.93;79.45
35778;BME280;21899;42.662;23.316;2023-02-14T03:11:43;95692.78;;;2.05;79.52
35778;BME280;21899;42.662;23.316;2023-02-14T03:14:30;95686.13;;;2.07;78.97
35778;BME280;21899;42.662;23.316;2023-02-14T03:17:14;95663.44;;;2.06;78.91
35778;BME280;21899;42.662;23.316;2023-02-14T03:20:22;95662.25;;;2.12;78.37
35778;BME280;21899;42.662;23.316;2023-02-14T03:25:52;95663.66;;;2.18;77.89
35778;BME280;21899;42.662;23.316;2023-02-14T03:28:46;95660.88;;;2.15;78.05
35778;BME280;21899;42.662;23.316;2023-02-14T03:31:31;95638.59;;;2.07;77.94
35778;BME280;21899;42.662;23.316;2023-02-14T03:36:41;95652.50;;;1.99;78.43
35778;BME280;21899;42.662;23.316;2023-02-14T03:39:39;95643.72;;;1.90;79.03
35778;BME280;21899;42.662;23.316;2023-02-14T03:42:12;95643.09;;;1.85;79.03
35778;BME280;21899;42.662;23.316;2023-02-14T03:44:40;95651.19;;;1.88;79.13
35778;BME280;21899;42.662;23.316;2023-02-14T03:47:13;95645.53;;;1.81;79.25
35778;BME280;21899;42.662;23.316;2023-02-14T03:49:48;95646.47;;;1.85;78.91
35778;BME280;21899;42.662;23.316;2023-02-14T03:52:15;95654.88;;;1.87;79.25
35778;BME280;21899;42.662;23.316;2023-02-14T03:54:44;95642.59;;;1.83;79.26
35778;BME280;21899;42.662;23.316;2023-02-14T03:58:03;95626.69;;;1.74;79.31
35778;BME280;21899;42.662;23.316;2023-02-14T04:00:04;95638.81;;;1.75;79.72
35778;BME280;21899;42.662;23.316;2023-02-14T04:02:40;95636.75;;;1.72;79.93
35778;BME280;21899;42.662;23.316;2023-02-14T04:05:13;95622.59;;;1.68;79.59
35778;BME280;21899;42.662;23.316;2023-02-14T04:07:51;95628.72;;;1.77;79.44
35778;BME280;21899;42.662;23.316;2023-02-14T04:10:18;95605.28;;;1.76;79.40
35778;BME280;21899;42.662;23.316;2023-02-14T04:12:44;95614.16;;;1.80;79.05
35778;BME280;21899;42.662;23.316;2023-02-14T04:15:10;95617.56;;;1.80;78.75
35778;BME280;21899;42.662;23.316;2023-02-14T04:17:36;95603.22;;;1.73;78.62
35778;BME280;21899;42.662;23.316;2023-02-14T04:20:20;95627.53;;;1.83;78.46
35778;BME280;21899;42.662;23.316;2023-02-14T04:22:46;95631.63;;;1.89;78.52
35778;BME280;21899;42.662;23.316;2023-02-14T04:25:12;95615.91;;;1.84;78.21
35778;BME280;21899;42.662;23.316;2023-02-14T04:27:37;95621.66;;;1.86;78.01
35778;BME280;21899;42.662;23.316;2023-02-14T04:30:03;95621.66;;;1.86;77.95
35778;BME280;21899;42.662;23.316;2023-02-14T04:32:28;95611.00;;;1.91;77.75
35778;BME280;21899;42.662;23.316;2023-02-14T04:34:54;95620.75;;;1.91;77.72
35778;BME280;21899;42.662;23.316;2023-02-14T04:37:19;95616.09;;;1.88;77.54
35778;BME280;21899;42.662;23.316;2023-02-14T04:39:45;95622.97;;;1.97;78.09
35778;BME280;21899;42.662;23.316;2023-02-14T04:42:10;95621.06;;;1.89;77.31
35778;BME280;21899;42.662;23.316;2023-02-14T04:44:36;95618.91;;;1.91;77.55
35778;BME280;21899;42.662;23.316;2023-02-14T04:47:03;95587.47;;;1.81;77.45
35778;BME280;21899;42.662;23.316;2023-02-14T04:49:29;95602.28;;;1.91;77.15
35778;BME280;21899;42.662;23.316;2023-02-14T04:51:54;95596.22;;;1.90;77.37
35778;BME280;21899;42.662;23.316;2023-02-14T04:54:20;95588.81;;;1.79;77.47
35778;BME280;21899;42.662;23.316;2023-02-14T04:56:45;95597.72;;;1.83;77.59
35778;BME280;21899;42.662;23.316;2023-02-14T04:59:11;95600.38;;;1.83;77.73
35778;BME280;21899;42.662;23.316;2023-02-14T05:01:36;95582.59;;;1.75;77.73
35778;BME280;21899;42.662;23.316;2023-02-14T05:04:02;95596.09;;;1.73;78.14
35778;BME280;21899;42.662;23.316;2023-02-14T05:06:27;95604.38;;;1.80;77.88
35778;BME280;21899;42.662;23.316;2023-02-14T05:08:54;95606.44;;;1.83;77.25
35778;BME280;21899;42.662;23.316;2023-02-14T05:11:20;95590.41;;;1.80;77.26
35778;BME280;21899;42.662;23.316;2023-02-14T05:13:45;95602.88;;;1.88;77.22
35778;BME280;21899;42.662;23.316;2023-02-14T05:16:11;95584.63;;;1.78;76.99
35778;BME280;21899;42.662;23.316;2023-02-14T05:18:36;95603.25;;;1.95;76.90
35778;BME280;21899;42.662;23.316;2023-02-14T05:21:02;95610.25;;;1.99;76.81
35778;BME280;21899;42.662;23.316;2023-02-14T05:23:27;95605.59;;;1.96;76.32
35778;BME280;21899;42.662;23.316;2023-02-14T05:25:52;95602.66;;;1.98;76.29
35778;BME280;21899;42.662;23.316;2023-02-14T05:28:18;95593.94;;;1.97;76.39
35778;BME280;21899;42.662;23.316;2023-02-14T05:30:44;95593.94;;;1.97;76.16
35778;BME280;21899;42.662;23.316;2023-02-14T05:33:09;95607.63;;;1.99;76.33
35778;BME280;21899;42.662;23.316;2023-02-14T05:35:35;95597.06;;;1.99;76.38
35778;BME280;21899;42.662;23.316;2023-02-14T05:38:01;95602.22;;;2.04;76.68
35778;BME280;21899;42.662;23.316;2023-02-14T05:40:26;95590.09;;;2.03;76.43
35778;BME280;21899;42.662;23.316;2023-02-14T05:42:53;95603.66;;;2.10;75.84
35778;BME280;21899;42.662;23.316;2023-02-14T05:45:20;95598.38;;;2.10;76.14
35778;BME280;21899;42.662;23.316;2023-02-14T05:47:46;95597.31;;;2.11;75.64
35778;BME280;21899;42.662;23.316;2023-02-14T05:50:12;95588.91;;;2.09;76.02
35778;BME280;21899;42.662;23.316;2023-02-14T05:52:38;95581.09;;;2.04;75.71
35778;BME280;21899;42.662;23.316;2023-02-14T05:55:04;95583.31;;;2.11;75.53
35778;BME280;21899;42.662;23.316;2023-02-14T05:57:30;95591.41;;;2.14;75.86
35778;BME280;21899;42.662;23.316;2023-02-14T05:59:56;95597.06;;;2.21;76.06
35778;BME280;21899;42.662;23.316;2023-02-14T06:02:21;95590.22;;;2.20;75.81
35778;BME280;21899;42.662;23.316;2023-02-14T06:04:46;95582.09;;;2.17;75.45
35778;BME280;21899;42.662;23.316;2023-02-14T06:07:12;95596.97;;;2.35;75.20
35778;BME280;21899;42.662;23.316;2023-02-14T06:09:37;95591.84;;;2.38;74.69
35778;BME280;21899;42.662;23.316;2023-02-14T06:12:03;95596.53;;;2.41;74.40
35778;BME280;21899;42.662;23.316;2023-02-14T06:14:28;95600.88;;;2.37;74.12
35778;BME280;21899;42.662;23.316;2023-02-14T06:16:54;95607.47;;;2.48;74.69
35778;BME280;21899;42.662;23.316;2023-02-14T06:19:19;95609.19;;;2.53;74.03
35778;BME280;21899;42.662;23.316;2023-02-14T06:21:45;95603.63;;;2.63;73.44
35778;BME280;21899;42.662;23.316;2023-02-14T06:24:10;95600.56;;;2.69;73.31
35778;BME280;21899;42.662;23.316;2023-02-14T06:26:35;95625.50;;;2.77;73.45
35778;BME280;21899;42.662;23.316;2023-02-14T06:29:02;95612.31;;;2.86;72.83
35778;BME280;21899;42.662;23.316;2023-02-14T06:31:28;95612.47;;;2.89;72.37
35778;BME280;21899;42.662;23.316;2023-02-14T06:33:54;95609.34;;;2.87;72.63
35778;BME280;21899;42.662;23.316;2023-02-14T06:36:20;95605.97;;;2.95;72.58
35778;BME280;21899;42.662;23.316;2023-02-14T06:38:45;95602.63;;;2.81;73.03
35778;BME280;21899;42.662;23.316;2023-02-14T06:41:13;95609.69;;;2.94;72.50
35778;BME280;21899;42.662;23.316;2023-02-14T06:43:41;95613.94;;;3.04;72.50
35778;BME280;21899;42.662;23.316;2023-02-14T06:46:07;95610.19;;;3.05;71.83
35778;BME280;21899;42.662;23.316;2023-02-14T06:48:32;95606.47;;;3.06;72.34
35778;BME280;21899;42.662;23.316;2023-02-14T06:50:57;95602.38;;;3.00;72.63
35778;BME280;21899;42.662;23.316;2023-02-14T06:53:23;95592.94;;;3.07;72.90
35778;BME280;21899;42.662;23.316;2023-02-14T06:55:48;95584.84;;;3.04;72.64
35778;BME280;21899;42.662;23.316;2023-02-14T06:58:14;95597.16;;;3.17;72.95
35778;BME280;21899;42.662;23.316;2023-02-14T07:00:39;95589.56;;;3.24;72.15
35778;BME280;21899;42.662;23.316;2023-02-14T07:03:06;95591.56;;;3.27;71.87
35778;BME280;21899;42.662;23.316;2023-02-14T07:05:31;95589.41;;;3.29;72.19
35778;BME280;21899;42.662;23.316;2023-02-14T07:07:57;95581.16;;;3.39;71.91
35778;BME280;21899;42.662;23.316;2023-02-14T07:10:23;95576.66;;;3.39;72.28
35778;BME280;21899;42.662;23.316;2023-02-14T07:12:49;95567.47;;;3.37;72.92
35778;BME280;21899;42.662;23.316;2023-02-14T07:15:15;95577.75;;;3.38;72.92
35778;BME280;21899;42.662;23.316;2023-02-14T07:17:40;95585.38;;;3.40;73.31
35778;BME280;21899;42.662;23.316;2023-02-14T07:20:07;95590.66;;;3.40;73.04
35778;BME280;21899;42.662;23.316;2023-02-14T07:22:34;95569.78;;;3.30;73.60
35778;BME280;21899;42.662;23.316;2023-02-14T07:24:59;95593.31;;;3.48;73.21
35778;BME280;21899;42.662;23.316;2023-02-14T07:27:25;95583.19;;;3.33;74.65
35778;BME280;21899;42.662;23.316;2023-02-14T07:29:50;95578.97;;;3.32;74.84
35778;BME280;21899;42.662;23.316;2023-02-14T07:32:16;95600.44;;;3.31;75.13
35778;BME280;21899;42.662;23.316;2023-02-14T07:34:41;95588.78;;;3.32;75.40
35778;BME280;21899;42.662;23.316;2023-02-14T07:37:07;95597.03;;;3.39;75.70
35778;BME280;21899;42.662;23.316;2023-02-14T07:39:32;95592.22;;;3.41;75.38
35778;BME280;21899;42.662;23.316;2023-02-14T07:41:58;95594.09;;;3.40;75.55
35778;BME280;21899;42.662;23.316;2023-02-14T07:44:24;95587.81;;;3.19;77.67
35778;BME280;21899;42.662;23.316;2023-02-14T07:46:49;95594.59;;;2.95;79.78
35778;BME280;21899;42.662;23.316;2023-02-14T07:49:14;95597.72;;;2.97;80.70
35778;BME280;21899;42.662;23.316;2023-02-14T07:51:40;95612.19;;;2.99;80.63
35778;BME280;21899;42.662;23.316;2023-02-14T07:54:05;95594.41;;;2.91;81.84
35778;BME280;21899;42.662;23.316;2023-02-14T07:56:30;95601.72;;;2.86;82.61
35778;BME280;21899;42.662;23.316;2023-02-14T07:58:56;95616.16;;;2.80;83.66
35778;BME280;21899;42.662;23.316;2023-02-14T08:01:21;95617.72;;;2.81;84.51
35778;BME280;21899;42.662;23.316;2023-02-14T08:03:47;95619.59;;;2.80;84.94
35778;BME280;21899;42.662;23.316;2023-02-14T08:06:19;95611.69;;;2.89;84.87
35778;BME280;21899;42.662;23.316;2023-02-14T08:08:44;95621.66;;;2.92;84.81
35778;BME280;21899;42.662;23.316;2023-02-14T08:11:11;95615.97;;;2.76;84.99
35778;BME280;21899;42.662;23.316;2023-02-14T08:13:36;95617.13;;;2.84;85.68
35778;BME280;21899;42.662;23.316;2023-02-14T08:16:02;95614.63;;;2.87;85.94
35778;BME280;21899;42.662;23.316;2023-02-14T08:18:37;95618.03;;;2.88;85.39
35778;BME280;21899;42.662;23.316;2023-02-14T08:21:04;95617.91;;;2.93;85.44
35778;BME280;21899;42.662;23.316;2023-02-14T08:23:31;95628.34;;;2.98;85.22
35778;BME280;21899;42.662;23.316;2023-02-14T08:25:57;95622.88;;;2.86;84.91
35778;BME280;21899;42.662;23.316;2023-02-14T08:28:23;95630.69;;;2.91;84.62
35778;BME280;21899;42.662;23.316;2023-02-14T08:30:48;95638.78;;;3.03;85.07
35778;BME280;21899;42.662;23.316;2023-02-14T08:33:14;95625.56;;;3.03;84.51
35778;BME280;21899;42.662;23.316;2023-02-14T08:35:39;95616.97;;;2.89;85.12
35778;BME280;21899;42.662;23.316;2023-02-14T08:38:05;95621.38;;;3.02;84.34
35778;BME280;21899;42.662;23.316;2023-02-14T08:40:30;95615.63;;;3.08;84.07
35778;BME280;21899;42.662;23.316;2023-02-14T08:42:56;95631.84;;;3.15;84.00
35778;BME280;21899;42.662;23.316;2023-02-14T08:45:21;95628.34;;;2.98;85.29
35778;BME280;21899;42.662;23.316;2023-02-14T08:47:46;95624.75;;;2.85;86.26
35778;BME280;21899;42.662;23.316;2023-02-14T08:50:15;95639.84;;;2.93;86.78
35778;BME280;21899;42.662;23.316;2023-02-14T08:52:41;95639.81;;;2.85;87.67
35778;BME280;21899;42.662;23.316;2023-02-14T08:55:09;95615.34;;;2.71;88.19
35778;BME280;21899;42.662;23.316;2023-02-14T08:57:34;95630.84;;;2.63;89.34
35778;BME280;21899;42.662;23.316;2023-02-14T08:59:59;95636.75;;;2.60;89.95
35778;BME280;21899;42.662;23.316;2023-02-14T09:02:25;95634.28;;;2.64;90.03
35778;BME280;21899;42.662;23.316;2023-02-14T09:04:50;95649.41;;;2.72;90.14
35778;BME280;21899;42.662;23.316;2023-02-14T09:07:16;95625.44;;;2.68;90.25
35778;BME280;21899;42.662;23.316;2023-02-14T09:09:42;95629.38;;;2.80;89.84
35778;BME280;21899;42.662;23.316;2023-02-14T09:12:08;95596.28;;;2.82;88.23
35778;BME280;21899;42.662;23.316;2023-02-14T09:14:39;95617.72;;;2.81;88.72
35778;BME280;21899;42.662;23.316;2023-02-14T09:17:05;95613.84;;;2.87;88.16
35778;BME280;21899;42.662;23.316;2023-02-14T09:19:35;95612.63;;;2.93;87.99
35778;BME280;21899;42.662;23.316;2023-02-14T09:22:01;95605.34;;;2.98;87.53
35778;BME280;21899;42.662;23.316;2023-02-14T09:24:31;95607.78;;;2.86;87.72
35778;BME280;21899;42.662;23.316;2023-02-14T09:26:57;95603.47;;;2.99;87.50
35778;BME280;21899;42.662;23.316;2023-02-14T09:29:23;95604.41;;;2.94;87.24
35778;BME280;21899;42.662;23.316;2023-02-14T09:31:53;95609.09;;;2.97;86.98
35778;BME280;21899;42.662;23.316;2023-02-14T09:34:19;95611.25;;;2.95;86.38
35778;BME280;21899;42.662;23.316;2023-02-14T09:37:02;95619.84;;;3.01;86.28
35778;BME280;21899;42.662;23.316;2023-02-14T09:39:46;95611.75;;;3.06;86.18
35778;BME280;21899;42.662;23.316;2023-02-14T09:42:26;95610.81;;;3.02;85.79
35778;BME280;21899;42.662;23.316;2023-02-14T09:45:15;95617.03;;;3.06;85.75
35778;BME280;21899;42.662;23.316;2023-02-14T09:47:53;95590.59;;;3.06;84.90
35778;BME280;21899;42.662;23.316;2023-02-14T09:50:34;95610.72;;;3.24;83.94
35778;BME280;21899;42.662;23.316;2023-02-14T09:55:52;95594.84;;;3.24;83.02
35778;BME280;21899;42.662;23.316;2023-02-14T09:58:32;95603.09;;;3.31;83.02
35778;BME280;21899;42.662;23.316;2023-02-14T10:01:21;95597.94;;;3.26;82.65
35778;BME280;21899;42.662;23.316;2023-02-14T10:03:52;95596.69;;;3.23;82.99
35778;BME280;21899;42.662;23.316;2023-02-14T10:06:59;95585.47;;;3.18;82.94
35778;BME280;21899;42.662;23.316;2023-02-14T10:09:56;95591.56;;;3.27;82.62
35778;BME280;21899;42.662;23.316;2023-02-14T10:14:59;95585.34;;;3.23;82.35
35778;BME280;21899;42.662;23.316;2023-02-14T10:17:46;95582.41;;;3.33;81.73
35778;BME280;21899;42.662;23.316;2023-02-14T10:20:26;95585.94;;;3.20;81.67
35778;BME280;21899;42.662;23.316;2023-02-14T10:23:21;95576.31;;;3.24;82.17
35778;BME280;21899;42.662;23.316;2023-02-14T10:26:08;95576.31;;;3.24;82.42
35778;BME280;21899;42.662;23.316;2023-02-14T10:28:44;95573.66;;;3.15;82.25
35778;BME280;21899;42.662;23.316;2023-02-14T10:33:55;95559.50;;;3.20;82.17
35778;BME280;21899;42.662;23.316;2023-02-14T10:42:30;95570.38;;;3.10;81.83
35778;BME280;21899;42.662;23.316;2023-02-14T10:58:25;95565.69;;;3.07;81.73
35778;BME280;21899;42.662;23.316;2023-02-14T11:00:59;95569.09;;;2.99;82.20
35778;BME280;21899;42.662;23.316;2023-02-14T11:03:27;95565.97;;;2.97;82.21
35778;BME280;21899;42.662;23.316;2023-02-14T11:05:53;95571.41;;;2.92;82.37
35778;BME280;21899;42.662;23.316;2023-02-14T11:08:26;95550.41;;;2.87;82.49
35778;BME280;21899;42.662;23.316;2023-02-14T11:10:59;95551.53;;;2.94;82.32
35778;BME280;21899;42.662;23.316;2023-02-14T11:13:32;95550.28;;;3.00;81.83
35778;BME280;21899;42.662;23.316;2023-02-14T11:16:09;95558.53;;;3.16;80.39
35778;BME280;21899;42.662;23.316;2023-02-14T11:18:37;95555.63;;;3.17;80.20
35778;BME280;21899;42.662;23.316;2023-02-14T11:21:12;95560.06;;;3.00;79.58
35778;BME280;21899;42.662;23.316;2023-02-14T11:23:46;95552.31;;;3.12;79.60
35778;BME280;21899;42.662;23.316;2023-02-14T11:26:24;95550.44;;;3.04;79.67
35778;BME280;21899;42.662;23.316;2023-02-14T11:28:51;95549.53;;;3.08;79.30
35778;BME280;21899;42.662;23.316;2023-02-14T11:31:32;95540.16;;;2.94;79.59
35778;BME280;21899;42.662;23.316;2023-02-14T11:33:59;95541.41;;;3.05;79.72
35778;BME280;21899;42.662;23.316;2023-02-14T11:36:26;95531.13;;;2.95;78.65
35778;BME280;21899;42.662;23.316;2023-02-14T11:39:06;95538.94;;;3.08;78.46
35778;BME280;21899;42.662;23.316;2023-02-14T11:41:49;95543.00;;;3.06;77.68
35778;BME280;21899;42.662;23.316;2023-02-14T11:44:27;95521.50;;;2.99;77.13
35778;BME280;21899;42.662;23.316;2023-02-14T11:46:55;95525.09;;;3.11;77.02
35778;BME280;21899;42.662;23.316;2023-02-14T11:51:56;95523.09;;;3.51;75.23
35778;BME280;21899;42.662;23.316;2023-02-14T11:54:42;95517.03;;;3.59;73.99
35778;BME280;21899;42.662;23.316;2023-02-14T11:57:33;95515.94;;;3.60;73.26
35778;BME280;21899;42.662;23.316;2023-02-14T12:00:01;95509.72;;;3.56;73.11
35778;BME280;21899;42.662;23.316;2023-02-14T12:02:45;95510.03;;;3.63;72.29
35778;BME280;21899;42.662;23.316;2023-02-14T12:07:53;95498.00;;;3.74;71.94
35778;BME280;21899;42.662;23.316;2023-02-14T12:10:26;95500.81;;;3.60;72.30
35778;BME280;21899;42.662;23.316;2023-02-14T12:18:37;95482.44;;;3.64;72.87
35778;BME280;21899;42.662;23.316;2023-02-14T12:23:51;95492.22;;;3.80;72.30
35778;BME280;21899;42.662;23.316;2023-02-14T12:26:42;95499.22;;;4.02;71.79
35778;BME280;21899;42.662;23.316;2023-02-14T12:29:33;95494.38;;;4.04;71.23
35778;BME280;21899;42.662;23.316;2023-02-14T12:32:25;95483.63;;;4.09;71.23
35778;BME280;21899;42.662;23.316;2023-02-14T12:35:05;95486.81;;;4.23;70.92
35778;BME280;21899;42.662;23.316;2023-02-14T12:43:35;95487.03;;;4.18;71.53
35778;BME280;21899;42.662;23.316;2023-02-14T12:46:14;95489.84;;;4.13;71.05
35778;BME280;21899;42.662;23.316;2023-02-14T12:51:47;95483.09;;;4.24;71.10
35778;BME280;21899;42.662;23.316;2023-02-14T12:54:31;95485.72;;;4.33;70.53
35778;BME280;21899;42.662;23.316;2023-02-14T13:00:28;95494.56;;;4.37;70.03
35778;BME280;21899;42.662;23.316;2023-02-14T13:11:21;95487.97;;;4.05;72.34
35778;BME280;21899;42.662;23.316;2023-02-14T13:16:55;95480.66;;;4.02;73.46
35778;BME280;21899;42.662;23.316;2023-02-14T13:22:13;95464.91;;;4.14;73.71
35778;BME280;21899;42.662;23.316;2023-02-14T13:24:46;95465.50;;;4.20;73.67
35778;BME280;21899;42.662;23.316;2023-02-14T13:27:20;95461.44;;;4.22;73.04
35778;BME280;21899;42.662;23.316;2023-02-14T13:29:54;95467.66;;;4.26;73.11
35778;BME280;21899;42.662;23.316;2023-02-14T13:32:23;95473.78;;;4.18;73.95
35778;BME280;21899;42.662;23.316;2023-02-14T13:34:50;95466.25;;;4.20;73.99
35778;BME280;21899;42.662;23.316;2023-02-14T13:37:20;95458.22;;;4.08;74.26
35778;BME280;21899;42.662;23.316;2023-02-14T13:39:59;95462.69;;;4.25;73.54
35778;BME280;21899;42.662;23.316;2023-02-14T13:48:15;95467.19;;;4.24;74.80
35778;BME280;21899;42.662;23.316;2023-02-14T13:58:49;95466.91;;;4.17;74.93
35778;BME280;21899;42.662;23.316;2023-02-14T14:01:39;95470.81;;;4.20;74.19
35778;BME280;21899;42.662;23.316;2023-02-14T14:17:29;95481.25;;;4.16;74.74
35778;BME280;21899;42.662;23.316;2023-02-14T14:19:56;95480.50;;;4.07;74.84
35778;BME280;21899;42.662;23.316;2023-02-14T14:22:23;95477.53;;;4.09;74.89
35778;BME280;21899;42.662;23.316;2023-02-14T14:25:03;95474.72;;;4.05;74.50
35778;BME280;21899;42.662;23.316;2023-02-14T14:27:35;95479.13;;;4.01;75.55
35778;BME280;21899;42.662;23.316;2023-02-14T14:30:14;95474.00;;;3.87;75.61
35778;BME280;21899;42.662;23.316;2023-02-14T14:32:41;95469.81;;;3.86;75.92
35778;BME280;21899;42.662;23.316;2023-02-14T14:37:45;95448.31;;;3.88;76.52
35778;BME280;21899;42.662;23.316;2023-02-14T14:42:50;95443.66;;;3.76;76.56
35778;BME280;21899;42.662;23.316;2023-02-14T14:45:26;95447.38;;;3.75;76.81
35778;BME280;21899;42.662;23.316;2023-02-14T14:47:55;95447.22;;;3.80;76.88
35778;BME280;21899;42.662;23.316;2023-02-14T14:52:51;95454.91;;;3.65;77.76
35778;BME280;21899;42.662;23.316;2023-02-14T14:55:21;95445.69;;;3.62;77.90
35778;BME280;21899;42.662;23.316;2023-02-14T14:57:50;95439.66;;;3.62;77.53
35778;BME280;21899;42.662;23.316;2023-02-14T15:05:43;95455.06;;;3.68;77.58
35778;BME280;21899;42.662;23.316;2023-02-14T15:10:38;95468.13;;;3.73;77.31
35778;BME280;21899;42.662;23.316;2023-02-14T15:13:07;95470.47;;;3.75;77.01
35778;BME280;21899;42.662;23.316;2023-02-14T15:15:54;95467.66;;;3.63;77.23
35778;BME280;21899;42.662;23.316;2023-02-14T15:18:20;95472.19;;;3.62;77.49
35778;BME280;21899;42.662;23.316;2023-02-14T15:20:49;95469.22;;;3.64;77.70
35778;BME280;21899;42.662;23.316;2023-02-14T15:23:18;95468.13;;;3.65;77.44
35778;BME280;21899;42.662;23.316;2023-02-14T15:25:46;95472.31;;;3.66;77.07
35778;BME280;21899;42.662;23.316;2023-02-14T15:28:24;95479.03;;;3.63;77.33
35778;BME280;21899;42.662;23.316;2023-02-14T15:31:01;95468.13;;;3.56;77.43
35778;BME280;21899;42.662;23.316;2023-02-14T15:33:27;95471.41;;;3.53;77.61
35778;BME280;21899;42.662;23.316;2023-02-14T15:35:55;95464.56;;;3.44;77.62
35778;BME280;21899;42.662;23.316;2023-02-14T15:38:22;95463.47;;;3.45;77.65
35778;BME280;21899;42.662;23.316;2023-02-14T15:40:48;95465.97;;;3.50;77.74
35778;BME280;21899;42.662;23.316;2023-02-14T15:45:44;95478.56;;;3.53;77.58